Aérodrome :
LOGIN :

S'inscrire | Disclaimer

   EN    FR    IT 

 










Légende :    VFR   VFR Marginal   IFR   IFR Intensif   IFR Très Intensif
Visi : 
Plafond : 
>= 8 km
>= 3000ft
5 à 8 km
1000 à 3000 ft
1500m à 5 km
500 à 1000 ft
800 à 1500m
200 à 500 ft
< 800m
< 200 ft
Symboles :   Orages  Brouillard  Fortes neiges  Fortes précipitations  Vent > 20 kt
SIGMETs :   Divers  Orages  Givrage  Turbulence  Onde Orograph.  Cendres Volcan.







- Altitude de l'aérodrome : 215 ft
- Code IATA : ABZ
- Voir les cartes d'approche


EGPD - Aberdeen / Dyce

DERNIER METAR :
  • 161820Z AUTO 17008KT 9999 NCD 15/09 Q1009 NOSIG

METARs EXPIRÉS :
  • 161750Z AUTO 19008KT 160V250 9999 NCD 15/09 Q1009 NOSIG
  • 161720Z AUTO 18008KT 9999 NCD 14/08 Q1009 NOSIG
  • 161650Z AUTO 17014KT 9999 NCD 14/08 Q1009 NOSIG
  • 161620Z AUTO 17012KT 9999 NCD 15/08 Q1009 NOSIG
  • 161550Z AUTO 16010KT 9999 NCD 15/09 Q1009 NOSIG
  • 161520Z AUTO 17008KT 9999 FEW044/// //////CB 14/09 Q1010 NOSIG

TAF TAF EGPD
Valide du 16 à 18h jusqu'au 17 à 18h UTC


161702Z 1618/1718 18009KT 9999 FEW045
PROB30
TEMPO 1618/1621 6000 SHRA
TEMPO 1700/1704 6000 RA
PROB30
TEMPO 1701/1704 3000 +RA BKN005
PROB40
TEMPO 1703/1718 20015G25KT
TEMPO 1711/1718 6000 SHRA
PROB30
TEMPO 1712/1718 3000 +SHRA BKN014CB
Pas de NOTAMs connus pour ce terrain.



MET'MAP, la Météo Aéronautique d'un coup d'oeil ! - Copyright ORBIFLY Décembre 2007 - Disclaimer

ORBIFLY MET'MAP TEAM :

Programmation & Développement : Alexandra Zaïnal
Conception & Développement : Baudouin d'Aumeries
Co-Programmation & Développement : Marc-Olivier Méhu
Soutien technique & logistique : Manuel Goepfert

Contact : metmap@orbifly.com




SOURCES & CREDITS :

   NOAA